KBML

Berlin Regional Airport

Berlin, New Hampshire, USA
METAR KBML 181552Z AUTO 00000KT 10SM OVC022 M14/M16 A3000 RMK AO2 SLP192 T11391161
Observed Flight Rules
Dec-18 @ 15:52 UTC (41 minutes ago) Marginal Visual Flight Rules
Wind Visibility Clouds
Calm 10 miles
  • Overcast at 2,200' AGL
Temperatures Readings
Current -14°C / 7°F
Dewpoint -16°C / 3°F
Humidity 85%
Altimeter 30" Hg
Pressure 1019.2 hPa
Elevation 345
METAR KBML 181552Z AUTO 00000KT 10SM OVC022 M14/M16 A3000 RMK AO2 SLP192 T11391161
Observed Flight Rules
Dec-18 @ 15:52 UTC
(41 minutes ago)
MVFR
Wind Visibility
Calm 10 miles
Clouds
  • Overcast at 2,200' AGL
Temperature Dewpoint
-14°C / 7°F -16°C / 3°F
Humidity Altimeter Pressure
85% 30" Hg 1019.2 hPa